createdAt,value
2023-04-30T00:02:21.838Z,7.63
2023-04-30T00:07:24.463Z,6.90
2023-04-30T00:12:28.387Z,6.72
2023-04-30T00:22:34.391Z,8.07
2023-04-30T00:27:40.660Z,7.55
2023-04-30T00:32:45.872Z,8.95
2023-04-30T00:37:48.633Z,7.32
2023-04-30T00:42:55.680Z,7.75
2023-04-30T00:47:58.540Z,8.45
2023-04-30T00:53:01.500Z,7.80
2023-04-30T00:58:06.471Z,6.47
2023-04-30T01:03:09.836Z,6.55
2023-04-30T01:08:12.819Z,8.05
2023-04-30T01:13:19.117Z,10.68
2023-04-30T01:18:24.354Z,11.23
2023-04-30T01:23:35.032Z,9.30
2023-04-30T01:28:39.239Z,11.95
2023-04-30T01:33:41.747Z,8.38
2023-04-30T01:38:59.280Z,8.25
2023-04-30T01:44:09.743Z,8.35
2023-04-30T01:49:16.365Z,9.93
2023-04-30T01:54:23.772Z,9.32
2023-04-30T01:59:27.824Z,10.40
2023-04-30T02:09:33.287Z,8.57
2023-04-30T02:14:37.039Z,8.80
2023-04-30T02:19:39.514Z,9.77
2023-04-30T02:24:42.012Z,11.02
2023-04-30T02:29:45.839Z,9.27
2023-04-30T02:34:48.416Z,8.15
2023-04-30T02:39:51.413Z,9.95
2023-04-30T02:44:55.382Z,8.93
2023-04-30T02:49:58.143Z,10.93
2023-04-30T02:55:00.937Z,9.90
2023-04-30T03:00:05.602Z,8.70
2023-04-30T03:05:08.379Z,11.65
2023-04-30T03:10:11.511Z,14.13
2023-04-30T03:15:15.377Z,13.13
2023-04-30T03:20:17.850Z,10.88
2023-04-30T03:25:20.492Z,9.15
2023-04-30T03:30:24.500Z,11.52
2023-04-30T03:40:29.812Z,10.43
2023-04-30T03:45:33.711Z,10.30
2023-04-30T03:50:36.372Z,10.25
2023-04-30T03:55:38.933Z,14.20
2023-04-30T04:00:43.346Z,10.05
2023-04-30T04:05:46.074Z,10.85
2023-04-30T04:10:48.632Z,11.10
2023-04-30T04:15:52.548Z,14.07
2023-04-30T04:20:56.097Z,9.25
2023-04-30T04:25:58.758Z,10.90
2023-04-30T04:31:03.600Z,13.40
2023-04-30T04:36:06.738Z,9.77
2023-04-30T04:41:09.668Z,10.50
2023-04-30T04:46:16.482Z,9.95
2023-04-30T04:51:19.025Z,9.27
2023-04-30T04:56:21.651Z,10.48
2023-04-30T05:01:26.179Z,8.75
2023-04-30T05:06:28.899Z,11.00
2023-04-30T05:11:31.382Z,9.18
2023-04-30T05:16:35.550Z,10.63
2023-04-30T05:21:40.064Z,9.25
2023-04-30T05:26:42.598Z,10.88
2023-04-30T05:31:47.070Z,11.30
2023-04-30T05:36:49.760Z,9.27
2023-04-30T05:41:53.442Z,9.32
2023-04-30T05:46:58.047Z,7.82
2023-04-30T05:52:02.004Z,8.27
2023-04-30T06:02:08.962Z,9.60
2023-04-30T06:07:11.946Z,9.70
2023-04-30T06:12:14.550Z,12.53
2023-04-30T06:17:18.488Z,9.90
2023-04-30T06:22:21.281Z,8.90
2023-04-30T06:27:23.997Z,9.75
2023-04-30T06:32:28.039Z,7.55
2023-04-30T06:37:36.221Z,10.93
2023-04-30T06:42:39.474Z,8.52
2023-04-30T06:47:45.810Z,7.10
2023-04-30T06:52:49.012Z,11.05
2023-04-30T06:57:51.808Z,5.28
2023-04-30T07:02:57.364Z,5.83
2023-04-30T07:08:03.449Z,7.97
2023-04-30T07:13:05.906Z,7.15
2023-04-30T07:18:10.088Z,7.25
2023-04-30T07:23:13.211Z,5.68
2023-04-30T07:28:15.914Z,6.53
2023-04-30T07:33:19.832Z,6.80
2023-04-30T07:38:22.416Z,6.47
2023-04-30T07:43:24.946Z,6.68
2023-04-30T07:48:29.078Z,6.60
2023-04-30T07:53:31.605Z,8.07
2023-04-30T07:58:34.253Z,6.40
2023-04-30T08:03:38.589Z,7.20
2023-04-30T08:08:41.616Z,7.60
2023-04-30T08:13:44.536Z,8.50
2023-04-30T08:18:49.621Z,7.70
2023-04-30T08:23:52.746Z,9.35
2023-04-30T08:28:55.483Z,8.40
2023-04-30T08:33:59.551Z,7.32
2023-04-30T08:39:03.309Z,5.97
2023-04-30T08:44:08.221Z,5.78
2023-04-30T08:49:12.699Z,7.35
2023-04-30T08:54:15.450Z,5.60
2023-04-30T08:59:18.376Z,4.03
2023-04-30T09:09:28.643Z,5.97
2023-04-30T09:14:32.655Z,5.40
2023-04-30T09:19:35.526Z,4.97
2023-04-30T09:24:47.465Z,5.55
2023-04-30T09:29:50.388Z,4.00
2023-04-30T09:39:57.667Z,5.57
2023-04-30T09:45:00.356Z,6.95
2023-04-30T09:50:03.106Z,5.57
2023-04-30T09:55:10.914Z,6.35
2023-04-30T10:00:14.206Z,7.15
2023-04-30T10:05:17.418Z,6.57
2023-04-30T10:10:21.760Z,5.03
2023-04-30T10:15:26.755Z,5.38
2023-04-30T10:20:29.782Z,5.28
2023-04-30T10:25:33.998Z,5.80
2023-04-30T10:30:36.868Z,4.65
2023-04-30T10:35:43.459Z,4.70
2023-04-30T10:40:48.357Z,5.18
2023-04-30T10:45:51.247Z,3.72
2023-04-30T10:50:54.824Z,5.07
2023-04-30T10:56:00.379Z,3.33
2023-04-30T11:01:04.433Z,5.78
2023-04-30T11:06:12.465Z,6.82
2023-04-30T11:11:21.730Z,5.03
2023-04-30T11:16:29.742Z,5.07
2023-04-30T11:21:33.655Z,4.72
2023-04-30T11:26:51.104Z,3.42
2023-04-30T11:31:55.607Z,3.80
2023-04-30T11:37:00.063Z,4.35
2023-04-30T11:42:02.959Z,3.67
2023-04-30T11:47:07.270Z,2.80
2023-04-30T11:52:09.904Z,4.38
2023-04-30T11:57:12.399Z,3.45
2023-04-30T12:02:18.401Z,3.58
2023-04-30T12:07:22.685Z,5.47
2023-04-30T12:12:28.780Z,3.63
2023-04-30T12:17:33.937Z,3.78
2023-04-30T12:22:36.809Z,4.65
2023-04-30T12:27:39.931Z,4.68
2023-04-30T12:32:44.511Z,4.10
2023-04-30T12:37:50.061Z,3.88
2023-04-30T12:42:52.811Z,4.47
2023-04-30T12:47:57.018Z,4.25
2023-04-30T12:53:02.914Z,4.68
2023-04-30T12:58:06.257Z,4.57
2023-04-30T13:03:10.197Z,4.90
2023-04-30T13:08:14.088Z,5.00
2023-04-30T13:13:17.504Z,4.75
2023-04-30T13:18:21.733Z,3.88
2023-04-30T13:23:24.304Z,4.20
2023-04-30T13:28:27.434Z,4.15
2023-04-30T13:33:31.431Z,2.30
2023-04-30T13:38:33.975Z,3.85
2023-04-30T13:43:41.474Z,3.28
2023-04-30T13:48:48.315Z,3.35
2023-04-30T13:53:51.092Z,3.00
2023-04-30T14:03:57.789Z,2.73
2023-04-30T14:09:00.958Z,4.00
2023-04-30T14:14:03.961Z,3.28
2023-04-30T14:24:12.635Z,3.63
2023-04-30T14:29:16.236Z,3.65
2023-04-30T14:34:20.141Z,4.40
2023-04-30T14:39:24.109Z,3.50
2023-04-30T14:44:26.923Z,2.63
2023-04-30T14:49:29.506Z,4.70
2023-04-30T14:54:34.019Z,3.75
2023-04-30T14:59:40.268Z,3.83
2023-04-30T15:04:46.080Z,3.10
2023-04-30T15:09:50.027Z,3.78
2023-04-30T15:14:53.171Z,4.10
2023-04-30T15:19:56.835Z,3.13
2023-04-30T15:25:01.156Z,3.75
2023-04-30T15:30:04.880Z,4.43
2023-04-30T15:35:08.290Z,4.32
2023-04-30T15:40:15.198Z,3.33
2023-04-30T15:45:18.180Z,4.00
2023-04-30T15:50:21.309Z,3.60
2023-04-30T16:00:28.691Z,4.57
2023-04-30T16:05:31.459Z,3.42
2023-04-30T16:10:33.947Z,3.03
2023-04-30T16:15:37.769Z,3.77
2023-04-30T16:20:42.638Z,3.83
2023-04-30T16:25:45.450Z,5.80
2023-04-30T16:30:49.495Z,4.40
2023-04-30T16:35:54.674Z,5.72
2023-04-30T16:40:57.222Z,5.57
2023-04-30T16:46:01.802Z,4.67
2023-04-30T16:51:04.858Z,4.97
2023-04-30T16:56:07.499Z,4.25
2023-04-30T17:01:11.573Z,8.83
2023-04-30T17:06:14.264Z,4.55
2023-04-30T17:11:19.179Z,4.83
2023-04-30T17:16:23.154Z,5.07
2023-04-30T17:21:35.429Z,7.00
2023-04-30T17:26:38.244Z,4.65
2023-04-30T17:31:44.412Z,5.33
2023-04-30T17:36:47.925Z,6.60
2023-04-30T17:41:50.485Z,5.95
2023-04-30T17:46:55.044Z,5.43
2023-04-30T17:51:59.263Z,4.47
2023-04-30T17:57:02.226Z,7.70
2023-04-30T18:02:06.462Z,5.27
2023-04-30T18:07:09.305Z,5.43
2023-04-30T18:12:13.027Z,5.25
2023-04-30T18:17:16.923Z,6.07
2023-04-30T18:27:22.350Z,5.35
2023-04-30T18:37:43.979Z,8.30
2023-04-30T18:42:46.614Z,3.88
2023-04-30T18:47:50.658Z,5.97
2023-04-30T18:52:53.171Z,7.53
2023-04-30T18:57:56.218Z,6.90
2023-04-30T19:03:01.086Z,6.73
2023-04-30T19:08:04.187Z,4.40
2023-04-30T19:13:07.367Z,6.13
2023-04-30T19:18:12.771Z,6.23
2023-04-30T19:23:15.688Z,5.38
2023-04-30T19:28:19.182Z,4.82
2023-04-30T19:33:23.268Z,5.95
2023-04-30T19:38:26.093Z,5.20
2023-04-30T19:43:28.620Z,5.72
2023-04-30T19:48:33.108Z,7.70
2023-04-30T19:53:35.975Z,6.93
2023-04-30T19:58:38.485Z,5.85
2023-04-30T20:03:43.594Z,5.30
2023-04-30T20:08:46.594Z,8.60
2023-04-30T20:13:49.613Z,5.88
2023-04-30T20:18:53.644Z,6.10
2023-04-30T20:23:56.585Z,6.18
2023-04-30T20:29:00.332Z,6.85
2023-04-30T20:34:04.871Z,6.53
2023-04-30T20:39:08.582Z,8.05
2023-04-30T20:44:11.662Z,6.05
2023-04-30T20:49:15.662Z,6.70
2023-04-30T20:59:21.229Z,5.60
2023-04-30T21:04:25.084Z,7.22
2023-04-30T21:09:27.735Z,6.57
2023-04-30T21:14:30.809Z,6.00
2023-04-30T21:19:35.113Z,7.43
2023-04-30T21:24:39.711Z,4.00
2023-04-30T21:29:43.126Z,7.13
2023-04-30T21:34:47.348Z,8.15
2023-04-30T21:39:49.785Z,8.45
2023-04-30T21:44:52.492Z,5.95
2023-04-30T21:49:57.162Z,6.93
2023-04-30T21:54:59.864Z,5.78
2023-04-30T22:00:04.153Z,8.60
2023-04-30T22:05:08.780Z,6.00
2023-04-30T22:10:12.021Z,7.00
2023-04-30T22:15:15.469Z,6.47
2023-04-30T22:20:19.733Z,7.40
2023-04-30T22:25:22.612Z,5.20
2023-04-30T22:30:25.251Z,6.50
2023-04-30T22:35:29.881Z,6.07
2023-04-30T22:40:32.751Z,4.45
2023-04-30T22:45:40.631Z,5.97
2023-04-30T22:50:45.237Z,7.60
2023-04-30T22:55:48.406Z,4.72
2023-04-30T23:00:51.297Z,5.03
2023-04-30T23:05:55.216Z,6.95
2023-04-30T23:10:58.125Z,4.57
2023-04-30T23:16:01.259Z,4.43
2023-04-30T23:21:05.490Z,5.37
2023-04-30T23:26:08.288Z,6.57
2023-04-30T23:31:11.208Z,5.35
2023-04-30T23:36:15.464Z,5.50
2023-04-30T23:41:18.359Z,7.10
2023-04-30T23:46:22.561Z,9.45
2023-04-30T23:51:26.563Z,6.28
2023-04-30T23:56:29.399Z,6.50
